createdAt,value
2019-04-16T00:00:11.848Z,98995.94
2019-04-16T00:02:53.441Z,98990.69
2019-04-16T00:05:32.779Z,98992.01
2019-04-16T00:08:27.118Z,98989.84
2019-04-16T00:11:05.484Z,98980.70
2019-04-16T00:13:43.585Z,98985.93
2019-04-16T00:16:15.840Z,98980.69
2019-04-16T00:18:57.169Z,98980.69
2019-04-16T00:21:46.455Z,98982.89
2019-04-16T00:24:29.404Z,98975.91
2019-04-16T00:27:01.371Z,98982.02
2019-04-16T00:29:33.797Z,98976.38
2019-04-16T00:32:12.976Z,98970.71
2019-04-16T00:34:45.437Z,98966.78
2019-04-16T00:37:20.460Z,98967.68
2019-04-16T00:39:55.575Z,98973.34
2019-04-16T00:42:25.291Z,98968.56
2019-04-16T00:44:57.229Z,98962.48
2019-04-16T00:47:29.175Z,98962.92
2019-04-16T00:50:01.329Z,98965.10
2019-04-16T00:52:36.672Z,98960.75
2019-04-16T00:55:07.744Z,98961.17
2019-04-16T00:57:39.992Z,98958.58
2019-04-16T01:00:12.410Z,98966.41
2019-04-16T01:02:46.844Z,98960.30
2019-04-16T01:05:18.064Z,98969.45
2019-04-16T01:07:50.397Z,98961.20
2019-04-16T01:10:22.361Z,98963.79
2019-04-16T01:12:54.348Z,98956.41
2019-04-16T01:15:26.282Z,98964.25
2019-04-16T01:17:58.374Z,98962.05
2019-04-16T01:20:30.578Z,98962.05
2019-04-16T01:23:02.512Z,98965.54
2019-04-16T01:25:34.582Z,98962.92
2019-04-16T01:28:09.544Z,98965.55
2019-04-16T01:31:08.126Z,98962.06
2019-04-16T01:33:58.860Z,98961.19
2019-04-16T01:36:54.278Z,98963.81
2019-04-16T01:39:28.475Z,98967.73
2019-04-16T01:42:00.692Z,98965.53
2019-04-16T01:44:32.658Z,98965.55
2019-04-16T01:47:05.338Z,98961.19
2019-04-16T01:49:39.306Z,98965.53
2019-04-16T01:52:11.221Z,98968.14
2019-04-16T01:54:43.321Z,98968.55
2019-04-16T01:57:15.350Z,98962.89
2019-04-16T01:59:47.286Z,98963.77
2019-04-16T02:02:19.238Z,98962.44
2019-04-16T02:04:51.999Z,98964.64
2019-04-16T02:07:27.678Z,98963.34
2019-04-16T02:09:58.508Z,98961.59
2019-04-16T02:12:30.754Z,98963.74
2019-04-16T02:15:02.687Z,98962.00
2019-04-16T02:17:34.641Z,98973.28
2019-04-16T02:20:07.585Z,98969.38
2019-04-16T02:22:42.317Z,98965.00
2019-04-16T02:25:13.352Z,98969.81
2019-04-16T02:27:45.408Z,98971.12
2019-04-16T02:30:17.597Z,98969.34
2019-04-16T02:32:50.223Z,98965.86
2019-04-16T02:35:22.271Z,98964.11
2019-04-16T02:37:54.216Z,98961.95
2019-04-16T02:40:26.265Z,98964.09
2019-04-16T02:43:04.240Z,98962.38
2019-04-16T02:45:31.936Z,98953.22
2019-04-16T02:48:05.163Z,98959.75
2019-04-16T02:51:05.285Z,98959.30
2019-04-16T02:54:01.423Z,98957.53
2019-04-16T02:56:52.103Z,98954.92
2019-04-16T02:59:28.250Z,98956.67
2019-04-16T03:02:22.781Z,98961.03
2019-04-16T03:04:58.424Z,98954.92
2019-04-16T03:07:32.797Z,98958.81
2019-04-16T03:10:04.401Z,98958.40
2019-04-16T03:12:36.341Z,98952.30
2019-04-16T03:15:09.032Z,98952.27
2019-04-16T03:17:46.344Z,98953.55
2019-04-16T03:20:20.782Z,98953.11
2019-04-16T03:22:52.380Z,98949.61
2019-04-16T03:25:24.410Z,98960.49
2019-04-16T03:27:56.658Z,98950.91
2019-04-16T03:30:28.647Z,98957.02
2019-04-16T03:33:10.432Z,98950.50
2019-04-16T03:35:34.564Z,98947.88
2019-04-16T03:38:06.527Z,98949.61
2019-04-16T03:40:38.506Z,98946.55
2019-04-16T03:43:10.468Z,98952.22
2019-04-16T03:45:42.422Z,98954.80
2019-04-16T03:48:14.388Z,98953.49
2019-04-16T03:50:46.428Z,98954.35
2019-04-16T03:53:18.482Z,98953.05
2019-04-16T03:55:50.946Z,98955.24
2019-04-16T03:58:22.942Z,98959.63
2019-04-16T04:00:54.891Z,98956.57
2019-04-16T04:03:27.003Z,98959.23
2019-04-16T04:05:59.150Z,98960.14
2019-04-16T04:08:31.385Z,98960.18
2019-04-16T04:11:03.535Z,98956.74
2019-04-16T04:13:35.486Z,98957.22
2019-04-16T04:16:08.070Z,98954.21
2019-04-16T04:18:42.915Z,98955.97
2019-04-16T04:21:14.541Z,98953.32
2019-04-16T04:23:46.495Z,98959.83
2019-04-16T04:26:18.574Z,98953.58
2019-04-16T04:28:51.535Z,98957.34
2019-04-16T04:31:24.237Z,98950.51
2019-04-16T04:33:56.238Z,98953.55
2019-04-16T04:36:31.358Z,98953.96
2019-04-16T04:39:08.982Z,98953.90
2019-04-16T04:41:38.808Z,98948.06
2019-04-16T04:44:11.271Z,98953.61
2019-04-16T04:46:46.146Z,98949.22
2019-04-16T04:49:17.097Z,98952.72
2019-04-16T04:51:49.035Z,98955.64
2019-04-16T04:54:22.537Z,98953.21
2019-04-16T04:56:56.401Z,98950.73
2019-04-16T04:59:28.523Z,98953.09
2019-04-16T05:02:00.943Z,98950.40
2019-04-16T05:04:45.970Z,98949.36
2019-04-16T05:07:18.301Z,98948.74
2019-04-16T05:09:52.052Z,98956.96
2019-04-16T05:12:24.038Z,98955.19
2019-04-16T05:14:58.452Z,98955.95
2019-04-16T05:17:30.835Z,98949.71
2019-04-16T05:20:02.845Z,98955.53
2019-04-16T05:22:34.869Z,98953.27
2019-04-16T05:25:07.193Z,98952.38
2019-04-16T05:27:41.020Z,98952.27
2019-04-16T05:30:13.249Z,98955.73
2019-04-16T05:32:45.212Z,98948.77
2019-04-16T05:35:17.214Z,98949.13
2019-04-16T05:37:51.503Z,98943.44
2019-04-16T05:40:23.129Z,98944.03
2019-04-16T05:42:58.781Z,98942.10
2019-04-16T05:45:30.491Z,98953.19
2019-04-16T05:48:02.498Z,98948.52
2019-04-16T05:50:34.504Z,98946.11
2019-04-16T05:53:08.442Z,98946.95
2019-04-16T05:55:49.960Z,98947.84
2019-04-16T05:58:22.594Z,98952.09
2019-04-16T06:01:05.542Z,98953.50
2019-04-16T06:03:37.648Z,98948.89
2019-04-16T06:06:09.610Z,98951.27
2019-04-16T06:08:41.806Z,98953.77
2019-04-16T06:11:27.611Z,98955.65
2019-04-16T06:13:55.041Z,98949.41
2019-04-16T06:16:44.633Z,98961.91
2019-04-16T06:19:34.402Z,98953.30
2019-04-16T06:22:29.965Z,98959.17
2019-04-16T06:25:19.789Z,98951.88
2019-04-16T06:28:09.066Z,98944.17
2019-04-16T06:30:58.440Z,98940.33
2019-04-16T06:33:35.474Z,98950.83
2019-04-16T06:36:26.411Z,98949.66
2019-04-16T06:39:23.142Z,98953.41
2019-04-16T06:42:15.175Z,98960.41
2019-04-16T06:44:53.174Z,98946.16
2019-04-16T06:48:02.570Z,98949.98
2019-04-16T06:50:53.365Z,98949.89
2019-04-16T06:53:43.114Z,98958.19
2019-04-16T06:56:43.300Z,98953.20
2019-04-16T06:59:26.564Z,98953.22
2019-04-16T07:02:37.535Z,98953.56
2019-04-16T07:05:16.022Z,98955.44
2019-04-16T07:08:05.353Z,98962.03
2019-04-16T07:10:45.087Z,98962.77
2019-04-16T07:13:17.210Z,98969.88
2019-04-16T07:15:49.325Z,98964.23
2019-04-16T07:18:21.603Z,98965.50
2019-04-16T07:20:53.634Z,98973.05
2019-04-16T07:23:26.144Z,98962.16
2019-04-16T07:25:58.328Z,98970.31
2019-04-16T07:28:47.987Z,98968.31
2019-04-16T07:31:44.952Z,98971.81
2019-04-16T07:34:39.910Z,98973.25
2019-04-16T07:37:33.850Z,98971.98
2019-04-16T07:40:24.164Z,98966.67
2019-04-16T07:43:15.576Z,98968.58
2019-04-16T07:46:11.363Z,98957.50
2019-04-16T07:49:05.102Z,98965.55
2019-04-16T07:51:51.541Z,98972.11
2019-04-16T07:54:32.295Z,98963.22
2019-04-16T07:57:04.263Z,98964.19
2019-04-16T07:59:36.293Z,98975.47
2019-04-16T08:02:08.333Z,98947.91
2019-04-16T08:04:40.916Z,98955.36
2019-04-16T08:07:12.901Z,98965.59
2019-04-16T08:09:45.275Z,98945.35
2019-04-16T08:12:29.827Z,98952.84
2019-04-16T08:14:50.978Z,98950.39
2019-04-16T08:17:23.071Z,98952.55
2019-04-16T08:19:55.807Z,98951.02
2019-04-16T08:22:28.213Z,98952.52
2019-04-16T08:25:03.213Z,98947.41
2019-04-16T08:27:35.770Z,98948.30
2019-04-16T08:30:10.725Z,98948.61
2019-04-16T08:32:45.751Z,98952.13
2019-04-16T08:35:16.638Z,98941.30
2019-04-16T08:37:49.547Z,98965.41
2019-04-16T08:40:21.686Z,98944.95
2019-04-16T08:42:56.968Z,98945.95
2019-04-16T08:45:27.625Z,98943.03
2019-04-16T08:47:59.615Z,98937.39
2019-04-16T08:50:31.611Z,98943.73
2019-04-16T08:53:03.614Z,98928.47
2019-04-16T08:55:36.037Z,98940.53
2019-04-16T08:58:08.747Z,98932.94
2019-04-16T09:00:45.994Z,98928.06
2019-04-16T09:03:15.815Z,98949.70
2019-04-16T09:05:47.935Z,98941.23
2019-04-16T09:08:45.304Z,98935.32
2019-04-16T09:11:23.491Z,98934.09
2019-04-16T09:13:56.738Z,98928.55
2019-04-16T09:16:28.809Z,98933.45
2019-04-16T09:19:10.070Z,98922.84
2019-04-16T09:21:44.385Z,98913.45
2019-04-16T09:24:28.558Z,98943.25
2019-04-16T09:27:06.764Z,98917.40
2019-04-16T09:29:48.838Z,98913.23
2019-04-16T09:32:29.861Z,98924.78
2019-04-16T09:35:19.713Z,98922.28
2019-04-16T09:38:12.996Z,98912.84
2019-04-16T09:41:11.419Z,98918.60
2019-04-16T09:43:46.048Z,98922.80
2019-04-16T09:46:25.473Z,98903.42
2019-04-16T09:48:52.207Z,98916.36
2019-04-16T09:51:25.881Z,98907.64
2019-04-16T09:53:58.676Z,98896.91
2019-04-16T09:56:31.703Z,98892.62
2019-04-16T09:59:15.792Z,98902.09
2019-04-16T10:01:53.969Z,98902.10
2019-04-16T10:04:26.250Z,98890.80
2019-04-16T10:06:58.583Z,98900.37
2019-04-16T10:09:31.127Z,98894.34
2019-04-16T10:12:04.942Z,98882.41
2019-04-16T10:14:36.901Z,98882.99
2019-04-16T10:17:09.194Z,98881.31
2019-04-16T10:19:43.246Z,98858.84
2019-04-16T10:22:14.827Z,98879.89
2019-04-16T10:25:13.118Z,98869.53
2019-04-16T10:27:51.000Z,98867.28
2019-04-16T10:30:26.200Z,98880.62
2019-04-16T10:32:58.284Z,98871.88
2019-04-16T10:35:30.814Z,98867.17
2019-04-16T10:38:10.174Z,98869.83
2019-04-16T10:40:44.733Z,98859.72
2019-04-16T10:43:44.820Z,98853.61
2019-04-16T10:46:33.953Z,98852.44
2019-04-16T10:49:16.784Z,98848.21
2019-04-16T10:52:10.490Z,98860.67
2019-04-16T10:54:54.227Z,98853.13
2019-04-16T10:57:48.961Z,98850.54
2019-04-16T11:00:31.275Z,98844.02
2019-04-16T11:03:07.197Z,98863.31
2019-04-16T11:05:47.041Z,98854.19
2019-04-16T11:08:19.154Z,98850.24
2019-04-16T11:10:51.135Z,98852.59
2019-04-16T11:13:35.770Z,98852.29
2019-04-16T11:16:17.118Z,98869.00
2019-04-16T11:18:49.184Z,98866.39
2019-04-16T11:21:21.181Z,98869.91
2019-04-16T11:23:53.269Z,98856.85
2019-04-16T11:26:25.387Z,98859.21
2019-04-16T11:28:59.158Z,98847.97
2019-04-16T11:31:31.562Z,98858.09
2019-04-16T11:34:06.533Z,98859.42
2019-04-16T11:36:38.959Z,98854.71
2019-04-16T11:39:12.110Z,98858.41
2019-04-16T11:41:44.304Z,98875.31
2019-04-16T11:44:17.348Z,98891.30
2019-04-16T11:46:50.380Z,98890.34
2019-04-16T11:49:22.453Z,98897.20
2019-04-16T11:51:54.519Z,98903.97
2019-04-16T11:54:26.524Z,98906.74
2019-04-16T11:56:59.499Z,98906.50
2019-04-16T11:59:33.543Z,98912.73
2019-04-16T12:02:18.103Z,98909.95
2019-04-16T12:05:03.699Z,98908.44
2019-04-16T12:07:54.581Z,98914.41
2019-04-16T12:10:47.635Z,98905.34
2019-04-16T12:13:45.529Z,98905.75
2019-04-16T12:16:42.108Z,98912.69
2019-04-16T12:19:31.295Z,98899.78
2019-04-16T12:22:21.785Z,98903.30
2019-04-16T12:25:13.266Z,98893.16
2019-04-16T12:28:12.514Z,98896.13
2019-04-16T12:31:02.573Z,98882.70
2019-04-16T12:33:51.884Z,98888.91
2019-04-16T12:36:57.868Z,98887.58
2019-04-16T12:39:35.687Z,98874.66
2019-04-16T12:42:21.875Z,98879.67
2019-04-16T12:45:11.406Z,98878.52
2019-04-16T12:47:51.036Z,98880.80
2019-04-16T12:50:51.471Z,98881.23
2019-04-16T12:53:42.891Z,98876.91
2019-04-16T12:56:41.031Z,98865.46
2019-04-16T12:59:41.721Z,98865.61
2019-04-16T13:02:32.438Z,98856.85
2019-04-16T13:05:12.934Z,98849.92
2019-04-16T13:08:02.319Z,98858.13
2019-04-16T13:10:56.134Z,98870.76
2019-04-16T13:13:47.016Z,98863.45
2019-04-16T13:16:23.233Z,98853.48
2019-04-16T13:19:13.016Z,98858.48
2019-04-16T13:21:55.490Z,98855.36
2019-04-16T13:24:43.095Z,98844.38
2019-04-16T13:27:31.130Z,98844.23
2019-04-16T13:30:03.539Z,98856.70
2019-04-16T13:32:35.935Z,98844.91
2019-04-16T13:35:08.241Z,98859.42
2019-04-16T13:37:40.300Z,98845.07
2019-04-16T13:40:16.199Z,98850.27
2019-04-16T13:42:48.193Z,98840.55
2019-04-16T13:45:40.741Z,98844.77
2019-04-16T13:48:30.527Z,98849.87
2019-04-16T13:51:06.102Z,98841.61
2019-04-16T13:54:00.322Z,98835.73
2019-04-16T13:56:55.955Z,98836.37
2019-04-16T13:59:49.932Z,98830.38
2019-04-16T14:02:43.763Z,98827.70
2019-04-16T14:05:16.113Z,98823.67
2019-04-16T14:07:48.229Z,98823.92
2019-04-16T14:10:20.250Z,98823.34
2019-04-16T14:12:52.348Z,98824.28
2019-04-16T14:15:32.464Z,98822.28
2019-04-16T14:18:00.778Z,98830.95
2019-04-16T14:20:32.958Z,98833.27
2019-04-16T14:23:05.418Z,98825.55
2019-04-16T14:25:37.447Z,98828.68
2019-04-16T14:28:09.454Z,98820.49
2019-04-16T14:30:44.586Z,98827.80
2019-04-16T14:33:23.185Z,98828.92
2019-04-16T14:35:55.289Z,98829.50
2019-04-16T14:38:42.256Z,98822.31
2019-04-16T14:41:15.929Z,98832.68
2019-04-16T14:43:51.811Z,98828.12
2019-04-16T14:46:28.267Z,98821.22
2019-04-16T14:48:57.775Z,98814.31
2019-04-16T14:51:30.073Z,98808.33
2019-04-16T14:54:07.524Z,98811.28
2019-04-16T14:56:45.917Z,98805.13
2019-04-16T14:59:36.718Z,98809.42
2019-04-16T15:02:24.876Z,98803.75
2019-04-16T15:05:33.960Z,98805.93
2019-04-16T15:08:28.180Z,98806.36
2019-04-16T15:11:28.368Z,98798.11
2019-04-16T15:14:23.391Z,98798.52
2019-04-16T15:17:29.449Z,98796.25
2019-04-16T15:20:28.228Z,98799.53
2019-04-16T15:23:21.986Z,98800.72
2019-04-16T15:26:18.679Z,98798.11
2019-04-16T15:28:56.264Z,98802.66
2019-04-16T15:31:47.209Z,98798.17
2019-04-16T15:34:22.176Z,98802.45
2019-04-16T15:37:13.028Z,98809.55
2019-04-16T15:39:51.183Z,98806.42
2019-04-16T15:42:40.732Z,98809.88
2019-04-16T15:45:18.148Z,98801.94
2019-04-16T15:48:21.607Z,98801.88
2019-04-16T15:51:21.653Z,98804.98
2019-04-16T15:54:08.732Z,98801.09
2019-04-16T15:56:59.568Z,98799.53
2019-04-16T15:59:42.559Z,98800.16
2019-04-16T16:02:32.290Z,98807.84
2019-04-16T16:05:14.470Z,98795.36
2019-04-16T16:07:56.597Z,98801.72
2019-04-16T16:10:34.630Z,98802.91
2019-04-16T16:13:06.688Z,98807.13
2019-04-16T16:15:40.474Z,98811.63
2019-04-16T16:18:12.559Z,98805.73
2019-04-16T16:20:44.601Z,98805.64
2019-04-16T16:23:16.728Z,98820.78
2019-04-16T16:25:48.811Z,98808.67
2019-04-16T16:28:21.233Z,98804.27
2019-04-16T16:30:53.338Z,98811.95
2019-04-16T16:33:25.334Z,98810.61
2019-04-16T16:35:59.619Z,98805.50
2019-04-16T16:38:31.456Z,98819.20
2019-04-16T16:41:03.670Z,98809.68
2019-04-16T16:43:35.803Z,98814.05
2019-04-16T16:46:32.506Z,98815.81
2019-04-16T16:49:05.013Z,98818.84
2019-04-16T16:51:38.674Z,98817.16
2019-04-16T16:54:18.872Z,98813.38
2019-04-16T16:57:08.420Z,98819.51
2019-04-16T16:59:51.310Z,98814.55
2019-04-16T17:02:31.886Z,98819.95
2019-04-16T17:05:04.103Z,98820.35
2019-04-16T17:07:36.216Z,98822.84
2019-04-16T17:10:10.130Z,98824.28
2019-04-16T17:12:45.015Z,98830.48
2019-04-16T17:15:17.072Z,98828.53
2019-04-16T17:17:49.088Z,98837.56
2019-04-16T17:20:21.126Z,98836.72
2019-04-16T17:22:53.686Z,98838.68
2019-04-16T17:25:36.214Z,98853.36
2019-04-16T17:28:00.202Z,98847.16
2019-04-16T17:30:32.927Z,98852.13
2019-04-16T17:33:05.015Z,98858.39
2019-04-16T17:35:37.002Z,98860.11
2019-04-16T17:38:09.145Z,98872.95
2019-04-16T17:40:47.215Z,98873.45
2019-04-16T17:43:28.089Z,98880.50
2019-04-16T17:46:16.290Z,98881.02
2019-04-16T17:49:06.639Z,98882.67
2019-04-16T17:51:50.618Z,98880.80
2019-04-16T17:54:36.797Z,98895.61
2019-04-16T17:57:30.213Z,98891.95
2019-04-16T18:00:15.334Z,98896.28
2019-04-16T18:03:08.094Z,98894.77
2019-04-16T18:05:59.375Z,98891.80
2019-04-16T18:09:02.342Z,98891.52
2019-04-16T18:11:55.945Z,98891.64
2019-04-16T18:14:44.920Z,98902.97
2019-04-16T18:17:27.658Z,98902.64
2019-04-16T18:20:08.772Z,98904.50
2019-04-16T18:22:46.700Z,98911.34
2019-04-16T18:25:37.370Z,98910.23
2019-04-16T18:28:17.460Z,98910.02
2019-04-16T18:31:08.345Z,98918.03
2019-04-16T18:33:45.714Z,98919.09
2019-04-16T18:36:33.615Z,98917.00
2019-04-16T18:39:38.372Z,98919.70
2019-04-16T18:42:18.154Z,98921.64
2019-04-16T18:45:01.412Z,98921.30
2019-04-16T18:47:43.852Z,98928.53
2019-04-16T18:50:22.137Z,98924.50
2019-04-16T18:52:54.542Z,98922.05
2019-04-16T18:55:26.665Z,98932.70
2019-04-16T18:57:58.803Z,98927.59
2019-04-16T19:00:44.921Z,98929.39
2019-04-16T19:03:17.050Z,98933.97
2019-04-16T19:05:49.236Z,98941.29
2019-04-16T19:08:21.252Z,98934.34
2019-04-16T19:10:53.451Z,98933.56
2019-04-16T19:13:25.459Z,98941.24
2019-04-16T19:15:57.540Z,98943.55
2019-04-16T19:18:29.593Z,98939.64
2019-04-16T19:21:01.679Z,98942.83
2019-04-16T19:23:33.714Z,98939.92
2019-04-16T19:26:06.189Z,98940.55
2019-04-16T19:28:39.629Z,98938.73
2019-04-16T19:31:12.026Z,98944.92
2019-04-16T19:33:44.055Z,98947.20
2019-04-16T19:36:16.189Z,98942.77
2019-04-16T19:38:48.231Z,98949.31
2019-04-16T19:41:23.572Z,98957.86
2019-04-16T19:43:54.672Z,98974.14
2019-04-16T19:46:27.009Z,98960.66
2019-04-16T19:49:00.422Z,98960.91
2019-04-16T19:51:33.114Z,98978.74
2019-04-16T19:54:05.757Z,98982.09
2019-04-16T19:56:38.044Z,98985.53
2019-04-16T19:59:10.972Z,98985.75
2019-04-16T20:01:43.062Z,98983.36
2019-04-16T20:04:15.167Z,98997.25
2019-04-16T20:06:47.514Z,99004.59
2019-04-16T20:09:19.841Z,99014.22
2019-04-16T20:11:54.698Z,99006.65
2019-04-16T20:14:25.534Z,99006.49
2019-04-16T20:16:57.546Z,99008.00
2019-04-16T20:19:29.536Z,99013.84
2019-04-16T20:22:01.601Z,99008.33
2019-04-16T20:24:33.793Z,99011.66
2019-04-16T20:27:06.992Z,99012.68
2019-04-16T20:29:39.177Z,99014.00
2019-04-16T20:32:11.385Z,99017.48
2019-04-16T20:34:45.224Z,99010.94
2019-04-16T20:37:17.110Z,99025.09
2019-04-16T20:39:49.110Z,99019.48
2019-04-16T20:42:21.498Z,99031.73
2019-04-16T20:44:53.537Z,99023.48
2019-04-16T20:47:25.580Z,99025.56
2019-04-16T20:49:57.785Z,99023.70
2019-04-16T20:52:30.835Z,99019.27
2019-04-16T20:55:03.991Z,99023.14
2019-04-16T20:57:38.960Z,99034.63
2019-04-16T21:00:12.846Z,99026.34
2019-04-16T21:02:44.792Z,99027.66
2019-04-16T21:05:22.275Z,99030.80
2019-04-16T21:07:50.576Z,99036.11
2019-04-16T21:10:22.801Z,99028.67
2019-04-16T21:12:55.117Z,99024.20
2019-04-16T21:15:28.373Z,99029.17
2019-04-16T21:18:00.528Z,99036.23
2019-04-16T21:20:32.585Z,99046.39
2019-04-16T21:23:05.067Z,99048.34
2019-04-16T21:25:37.109Z,99043.26
2019-04-16T21:28:46.344Z,99046.16
2019-04-16T21:31:31.395Z,99048.98
2019-04-16T21:34:26.289Z,99044.67
2019-04-16T21:37:15.396Z,99042.61
2019-04-16T21:39:58.962Z,99048.08
2019-04-16T21:42:34.366Z,99053.09
2019-04-16T21:45:05.715Z,99046.15
2019-04-16T21:47:37.903Z,99038.74
2019-04-16T21:50:10.463Z,99043.58
2019-04-16T21:52:42.403Z,99038.80
2019-04-16T21:55:14.415Z,99040.22
2019-04-16T21:57:46.656Z,99036.80
2019-04-16T22:00:39.305Z,99037.78
2019-04-16T22:03:12.267Z,99030.89
2019-04-16T22:05:48.078Z,99052.52
2019-04-16T22:08:17.900Z,99044.28
2019-04-16T22:10:50.201Z,99039.11
2019-04-16T22:13:22.160Z,99046.60
2019-04-16T22:15:57.333Z,99050.11
2019-04-16T22:18:29.708Z,99044.94
2019-04-16T22:21:01.793Z,99048.02
2019-04-16T22:23:33.752Z,99051.97
2019-04-16T22:26:09.685Z,99042.73
2019-04-16T22:28:44.155Z,99053.26
2019-04-16T22:31:13.438Z,99057.17
2019-04-16T22:33:45.431Z,99056.69
2019-04-16T22:36:17.474Z,99059.41
2019-04-16T22:38:54.138Z,99058.55
2019-04-16T22:41:33.190Z,99060.74
2019-04-16T22:44:32.041Z,99058.64
2019-04-16T22:47:09.333Z,99057.39
2019-04-16T22:49:41.380Z,99062.29
2019-04-16T22:52:13.386Z,99056.25
2019-04-16T22:54:45.336Z,99060.64
2019-04-16T22:57:17.350Z,99056.30
2019-04-16T22:59:49.935Z,99053.64
2019-04-16T23:02:27.941Z,99050.99
2019-04-16T23:05:00.226Z,99052.23
2019-04-16T23:07:33.663Z,99053.97
2019-04-16T23:10:06.091Z,99050.08
2019-04-16T23:12:38.024Z,99050.05
2019-04-16T23:15:12.182Z,99043.89
2019-04-16T23:17:46.112Z,99045.63
2019-04-16T23:20:29.110Z,99043.84
2019-04-16T23:22:51.670Z,99043.87
2019-04-16T23:25:26.898Z,99047.34
2019-04-16T23:27:57.818Z,99043.86
2019-04-16T23:30:30.026Z,99037.69
2019-04-16T23:33:01.975Z,99051.67
2019-04-16T23:35:34.009Z,99051.67
2019-04-16T23:38:06.121Z,99046.41
2019-04-16T23:40:40.706Z,99047.25
2019-04-16T23:43:25.758Z,99044.96
2019-04-16T23:46:15.240Z,99045.77
2019-04-16T23:49:02.757Z,99042.22
2019-04-16T23:51:38.872Z,99040.91
2019-04-16T23:54:18.000Z,99046.17
2019-04-16T23:56:56.420Z,99040.08
2019-04-16T23:59:42.181Z,99041.42
